Terminal Aerodrome Forecast
Issued by NWS

Home | Current Version | Previous Version | Text Only | Print | Product List | Glossary On
Versions: 1 2 3 4 5 6 7 8 9 10 11 12 13 14 15 16 17 18 19 20 21 22 23 24 25 26 27 28
154
FTUS46 KPQR 192331
TAFONP
TAF
KONP 192331Z 2000/2024 34013KT P6SM SCT250
     FM200300 33007KT P6SM BKN250
     FM200600 VRB03KT P6SM SCT120 BKN200
     FM201400 13005KT P6SM SCT020 SCT060 OVC100
     FM202000 21009KT P6SM BKN060 OVC100=

USA.gov is the U.S. government's official web portal to all federal, state and local government web resources and services.